createdAt,value
2018-08-19T00:01:11.354Z,40.47
2018-08-19T00:03:45.355Z,41.30
2018-08-19T00:06:18.941Z,40.90
2018-08-19T00:08:52.603Z,40.77
2018-08-19T00:11:26.171Z,39.97
2018-08-19T00:13:59.634Z,38.97
2018-08-19T00:16:33.822Z,39.53
2018-08-19T00:19:07.286Z,38.90
2018-08-19T00:21:40.886Z,41.30
2018-08-19T00:24:15.055Z,39.63
2018-08-19T00:26:48.555Z,37.67
2018-08-19T00:29:28.814Z,37.60
2018-08-19T00:32:01.988Z,39.57
2018-08-19T00:34:35.660Z,36.43
2018-08-19T00:37:10.358Z,36.93
2018-08-19T00:39:43.370Z,38.00
2018-08-19T00:42:18.275Z,39.40
2018-08-19T00:44:52.361Z,37.87
2018-08-19T00:47:25.381Z,37.67
2018-08-19T00:50:04.376Z,39.93
2018-08-19T00:52:37.198Z,39.83
2018-08-19T00:55:10.117Z,36.83
2018-08-19T00:57:46.899Z,41.57
2018-08-19T01:00:20.697Z,42.23
2018-08-19T01:02:53.643Z,37.73
2018-08-19T01:05:26.694Z,38.87
2018-08-19T01:07:59.650Z,38.60
2018-08-19T01:10:32.662Z,36.88
2018-08-19T01:13:06.990Z,40.37
2018-08-19T01:15:41.206Z,39.57
2018-08-19T01:18:15.476Z,37.57
2018-08-19T01:20:49.394Z,38.13
2018-08-19T01:23:22.949Z,38.90
2018-08-19T01:25:58.383Z,43.07
2018-08-19T01:28:32.329Z,42.10
2018-08-19T01:31:05.996Z,40.30
2018-08-19T01:33:39.683Z,40.50
2018-08-19T01:36:14.529Z,39.07
2018-08-19T01:38:49.346Z,38.70
2018-08-19T01:41:23.053Z,38.02
2018-08-19T01:44:10.158Z,37.63
2018-08-19T01:46:46.095Z,39.60
2018-08-19T01:49:18.987Z,37.73
2018-08-19T01:51:52.647Z,38.73
2018-08-19T01:54:26.829Z,37.48
2018-08-19T01:57:03.964Z,41.43
2018-08-19T01:59:37.644Z,38.40
2018-08-19T02:02:10.479Z,38.43
2018-08-19T02:04:57.955Z,40.60
2018-08-19T02:07:31.299Z,46.68
2018-08-19T02:10:08.185Z,39.13
2018-08-19T02:12:41.627Z,40.70
2018-08-19T02:15:14.814Z,40.97
2018-08-19T02:17:55.345Z,43.80
2018-08-19T02:20:42.283Z,47.07
2018-08-19T02:23:15.755Z,45.47
2018-08-19T02:25:50.366Z,43.40
2018-08-19T02:28:25.357Z,44.23
2018-08-19T02:31:03.334Z,47.63
2018-08-19T02:33:37.750Z,46.83
2018-08-19T02:36:12.001Z,48.97
2018-08-19T02:38:44.995Z,46.63
2018-08-19T02:41:18.006Z,48.00
2018-08-19T02:43:59.432Z,49.33
2018-08-19T02:46:33.216Z,53.15
2018-08-19T02:49:07.938Z,53.60
2018-08-19T02:51:40.774Z,52.30
2018-08-19T02:54:14.596Z,54.00
2018-08-19T02:56:47.480Z,53.60
2018-08-19T02:59:20.365Z,60.77
2018-08-19T03:01:54.414Z,68.87
2018-08-19T03:04:27.252Z,62.77
2018-08-19T03:07:00.259Z,67.37
2018-08-19T03:09:33.166Z,63.67
2018-08-19T03:12:10.911Z,62.53
2018-08-19T03:14:44.301Z,60.37
2018-08-19T03:17:17.491Z,69.83
2018-08-19T03:19:50.482Z,66.90
2018-08-19T03:22:23.460Z,61.27
2018-08-19T03:24:57.062Z,77.97
2018-08-19T03:27:30.685Z,66.70
2018-08-19T03:30:05.148Z,76.77
2018-08-19T03:32:39.869Z,73.70
2018-08-19T03:35:19.142Z,76.30
2018-08-19T03:37:53.964Z,79.70
2018-08-19T03:40:29.039Z,79.10
2018-08-19T03:43:02.165Z,77.70
2018-08-19T03:45:36.937Z,88.90
2018-08-19T03:48:09.898Z,79.40
2018-08-19T03:50:42.865Z,88.97
2018-08-19T03:53:16.601Z,80.87
2018-08-19T03:55:49.579Z,84.70
2018-08-19T03:58:23.050Z,92.90
2018-08-19T04:00:55.921Z,91.23
2018-08-19T04:03:29.035Z,89.90
2018-08-19T04:06:02.690Z,94.60
2018-08-19T04:08:41.535Z,90.83
2018-08-19T04:11:15.595Z,98.60
2018-08-19T04:13:48.459Z,95.30
2018-08-19T04:16:21.486Z,101.18
2018-08-19T04:18:58.022Z,102.63
2018-08-19T04:21:31.835Z,101.27
2018-08-19T04:24:05.068Z,99.10
2018-08-19T04:26:37.962Z,105.80
2018-08-19T04:29:15.137Z,106.70
2018-08-19T04:31:48.065Z,99.50
2018-08-19T04:34:20.919Z,107.47
2018-08-19T04:36:54.637Z,100.07
2018-08-19T04:39:27.438Z,101.53
2018-08-19T04:42:02.006Z,105.20
2018-08-19T04:44:34.824Z,111.97
2018-08-19T04:47:20.487Z,111.12
2018-08-19T04:49:54.669Z,104.17
2018-08-19T04:52:29.566Z,102.03
2018-08-19T04:55:03.671Z,99.47
2018-08-19T04:57:36.616Z,98.53
2018-08-19T05:00:09.702Z,102.03
2018-08-19T05:02:42.611Z,98.83
2018-08-19T05:05:15.599Z,102.50
2018-08-19T05:07:49.147Z,91.47
2018-08-19T05:10:22.243Z,90.27
2018-08-19T05:12:55.482Z,91.17
2018-08-19T05:15:28.544Z,93.25
2018-08-19T05:18:01.539Z,84.57
2018-08-19T05:20:35.866Z,80.50
2018-08-19T05:23:09.341Z,81.80
2018-08-19T05:25:47.616Z,84.50
2018-08-19T05:28:21.688Z,79.87
2018-08-19T05:30:55.481Z,75.77
2018-08-19T05:33:28.522Z,78.83
2018-08-19T05:36:01.338Z,66.70
2018-08-19T05:38:35.663Z,65.27
2018-08-19T05:41:08.969Z,71.67
2018-08-19T05:43:41.971Z,59.27
2018-08-19T05:46:14.849Z,66.20
2018-08-19T05:48:48.065Z,66.43
2018-08-19T05:51:21.877Z,61.73
2018-08-19T05:53:55.217Z,60.30
2018-08-19T05:56:28.266Z,56.95
2018-08-19T05:59:01.219Z,62.40
2018-08-19T06:01:34.265Z,51.90
2018-08-19T06:04:08.230Z,59.90
2018-08-19T06:06:41.055Z,50.27
2018-08-19T06:09:14.800Z,52.45
2018-08-19T06:11:47.621Z,50.53
2018-08-19T06:14:20.657Z,50.48
2018-08-19T06:16:54.029Z,49.67
2018-08-19T06:19:27.118Z,45.23
2018-08-19T06:22:01.972Z,50.50
2018-08-19T06:24:35.107Z,45.93
2018-08-19T06:27:08.435Z,49.83
2018-08-19T06:29:54.541Z,48.10
2018-08-19T06:32:33.138Z,45.65
2018-08-19T06:35:06.697Z,47.40
2018-08-19T06:37:39.688Z,43.60
2018-08-19T06:40:16.879Z,47.00
2018-08-19T06:42:49.805Z,43.40
2018-08-19T06:45:22.704Z,41.30
2018-08-19T06:47:56.137Z,42.30
2018-08-19T06:50:34.845Z,44.97
2018-08-19T06:53:08.376Z,41.00
2018-08-19T06:55:41.326Z,39.60
2018-08-19T06:58:14.706Z,41.83
2018-08-19T07:00:48.561Z,43.37
2018-08-19T07:03:21.489Z,40.87
2018-08-19T07:06:07.335Z,35.77
2018-08-19T07:08:40.069Z,39.67
2018-08-19T07:11:12.981Z,39.37
2018-08-19T07:13:47.151Z,41.80
2018-08-19T07:16:21.345Z,40.87
2018-08-19T07:18:54.232Z,44.33
2018-08-19T07:21:27.136Z,40.77
2018-08-19T07:24:00.031Z,40.07
2018-08-19T07:26:34.439Z,41.93
2018-08-19T07:29:07.365Z,42.70
2018-08-19T07:31:41.138Z,39.60
2018-08-19T07:34:14.755Z,39.27
2018-08-19T07:36:48.713Z,44.10
2018-08-19T07:39:21.999Z,47.50
2018-08-19T07:41:54.973Z,39.73
2018-08-19T07:44:28.316Z,39.73
2018-08-19T07:47:01.343Z,42.80
2018-08-19T07:49:34.237Z,43.30
2018-08-19T07:52:07.195Z,40.70
2018-08-19T07:54:40.132Z,43.13
2018-08-19T07:57:18.066Z,40.50
2018-08-19T07:59:51.087Z,39.80
2018-08-19T08:02:24.270Z,40.78
2018-08-19T08:04:57.285Z,39.27
2018-08-19T08:07:32.904Z,36.15
2018-08-19T08:10:07.468Z,38.03
2018-08-19T08:12:40.506Z,40.10
2018-08-19T08:15:13.808Z,44.50
2018-08-19T08:17:46.756Z,38.40
2018-08-19T08:20:19.611Z,42.50
2018-08-19T08:22:53.388Z,43.63
2018-08-19T08:25:26.255Z,43.50
2018-08-19T08:27:59.774Z,41.67
2018-08-19T08:30:32.687Z,42.87
2018-08-19T08:33:05.642Z,42.47
2018-08-19T08:35:42.666Z,39.43
2018-08-19T08:38:16.458Z,43.93
2018-08-19T08:40:50.515Z,39.53
2018-08-19T08:43:24.040Z,39.60
2018-08-19T08:45:59.941Z,38.67
2018-08-19T08:48:32.840Z,41.87
2018-08-19T08:51:05.898Z,40.73
2018-08-19T08:53:43.908Z,42.50
2018-08-19T08:56:17.032Z,40.27
2018-08-19T08:58:50.505Z,40.00
2018-08-19T09:01:23.382Z,37.57
2018-08-19T09:03:56.322Z,37.30
2018-08-19T09:06:32.299Z,42.83
2018-08-19T09:09:05.278Z,40.47
2018-08-19T09:11:39.241Z,42.30
2018-08-19T09:14:12.129Z,42.83
2018-08-19T09:16:45.152Z,39.90
2018-08-19T09:19:18.082Z,39.73
2018-08-19T09:21:51.049Z,42.00
2018-08-19T09:24:24.730Z,38.40
2018-08-19T09:26:57.824Z,36.30
2018-08-19T09:29:30.811Z,43.80
2018-08-19T09:32:03.735Z,40.50
2018-08-19T09:34:36.768Z,37.63
2018-08-19T09:37:10.706Z,41.97
2018-08-19T09:39:43.689Z,36.30
2018-08-19T09:42:16.907Z,40.97
2018-08-19T09:44:49.754Z,41.93
2018-08-19T09:47:22.661Z,39.80
2018-08-19T09:49:55.636Z,39.90
2018-08-19T09:52:28.604Z,37.77
2018-08-19T09:55:05.583Z,38.10
2018-08-19T09:57:42.034Z,40.07
2018-08-19T10:00:15.185Z,42.47
2018-08-19T10:02:52.248Z,41.47
2018-08-19T10:05:27.470Z,48.10
2018-08-19T10:08:00.916Z,40.70
2018-08-19T10:10:37.831Z,40.70
2018-08-19T10:13:11.125Z,39.40
2018-08-19T10:15:43.989Z,38.90
2018-08-19T10:18:16.886Z,37.03
2018-08-19T10:20:50.402Z,34.53
2018-08-19T10:23:26.152Z,38.73
2018-08-19T10:25:59.019Z,39.67
2018-08-19T10:28:31.966Z,37.30
2018-08-19T10:31:04.868Z,38.87
2018-08-19T10:33:38.463Z,33.73
2018-08-19T10:36:15.680Z,34.83
2018-08-19T10:38:49.065Z,35.43
2018-08-19T10:41:21.946Z,36.23
2018-08-19T10:43:54.911Z,37.87
2018-08-19T10:46:27.813Z,35.08
2018-08-19T10:49:00.709Z,38.40
2018-08-19T10:51:37.434Z,34.77
2018-08-19T10:54:10.266Z,41.40
2018-08-19T10:56:43.185Z,40.03
2018-08-19T10:59:19.324Z,44.73
2018-08-19T11:01:52.268Z,42.90
2018-08-19T11:04:25.941Z,53.48
2018-08-19T11:06:58.719Z,44.17
2018-08-19T11:09:32.402Z,48.50
2018-08-19T11:12:05.257Z,48.67
2018-08-19T11:14:38.250Z,52.10
2018-08-19T11:17:11.470Z,58.80
2018-08-19T11:19:44.392Z,48.27
2018-08-19T11:22:18.077Z,57.50
2018-08-19T11:24:51.030Z,55.70
2018-08-19T11:27:24.756Z,51.35
2018-08-19T11:29:57.653Z,53.23
2018-08-19T11:32:39.645Z,53.15
2018-08-19T11:35:13.528Z,47.27
2018-08-19T11:37:46.448Z,48.00
2018-08-19T11:40:20.852Z,45.10
2018-08-19T11:42:53.757Z,45.40
2018-08-19T11:45:26.813Z,48.07
2018-08-19T11:48:03.609Z,44.10
2018-08-19T11:50:36.532Z,40.17
2018-08-19T11:53:09.489Z,43.93
2018-08-19T11:55:43.553Z,41.93
2018-08-19T11:58:28.241Z,42.20
2018-08-19T12:01:05.702Z,41.90
2018-08-19T12:04:05.235Z,48.80
2018-08-19T12:06:38.422Z,39.70
2018-08-19T12:09:13.478Z,45.50
2018-08-19T12:11:46.362Z,44.23
2018-08-19T12:14:20.766Z,40.33
2018-08-19T12:16:59.961Z,46.73
2018-08-19T12:19:33.975Z,44.85
2018-08-19T12:22:07.624Z,41.87
2018-08-19T12:24:46.813Z,46.00
2018-08-19T12:27:21.994Z,42.50
2018-08-19T12:30:02.322Z,40.73
2018-08-19T12:32:35.314Z,45.93
2018-08-19T12:35:08.742Z,50.40
2018-08-19T12:37:41.843Z,44.80
2018-08-19T12:40:14.797Z,52.37
2018-08-19T12:42:51.773Z,41.92
2018-08-19T12:45:25.759Z,45.83
2018-08-19T12:47:58.647Z,44.43
2018-08-19T12:50:31.562Z,47.08
2018-08-19T12:53:04.985Z,63.63
2018-08-19T12:55:37.859Z,61.73
2018-08-19T12:58:11.477Z,59.47
2018-08-19T13:00:44.404Z,55.87
2018-08-19T13:03:17.332Z,60.57
2018-08-19T13:06:09.481Z,59.60
2018-08-19T13:08:43.248Z,64.13
2018-08-19T13:11:16.249Z,56.40
2018-08-19T13:13:49.148Z,52.90
2018-08-19T13:16:21.981Z,46.60
2018-08-19T13:18:56.365Z,47.07
2018-08-19T13:21:31.508Z,48.43
2018-08-19T13:24:05.259Z,44.23
2018-08-19T13:26:38.204Z,44.83
2018-08-19T13:29:11.088Z,50.33
2018-08-19T13:31:44.432Z,50.40
2018-08-19T13:34:17.356Z,46.10
2018-08-19T13:36:51.806Z,42.77
2018-08-19T13:39:24.715Z,47.40
2018-08-19T13:41:57.903Z,41.80
2018-08-19T13:44:30.824Z,42.87
2018-08-19T13:47:03.775Z,46.07
2018-08-19T13:49:37.064Z,45.87
2018-08-19T13:52:10.051Z,49.60
2018-08-19T13:54:51.383Z,48.40
2018-08-19T13:57:24.313Z,43.37
2018-08-19T13:59:57.185Z,47.70
2018-08-19T14:02:30.193Z,42.38
2018-08-19T14:05:03.172Z,40.50
2018-08-19T14:07:36.183Z,44.77
2018-08-19T14:10:10.524Z,45.43
2018-08-19T14:12:43.416Z,40.30
2018-08-19T14:15:16.446Z,39.97
2018-08-19T14:17:49.476Z,44.13
2018-08-19T14:20:22.760Z,43.73
2018-08-19T14:22:56.059Z,47.23
2018-08-19T14:25:30.117Z,46.40
2018-08-19T14:28:03.216Z,47.10
2018-08-19T14:30:36.415Z,42.70
2018-08-19T14:33:10.077Z,41.73
2018-08-19T14:35:43.231Z,41.43
2018-08-19T14:38:16.346Z,41.57
2018-08-19T14:40:50.506Z,40.70
2018-08-19T14:43:23.395Z,37.40
2018-08-19T14:45:56.796Z,41.40
2018-08-19T14:48:29.741Z,42.87
2018-08-19T14:51:03.051Z,40.80
2018-08-19T14:53:35.982Z,46.87
2018-08-19T14:56:17.909Z,49.77
2018-08-19T14:58:51.361Z,39.07
2018-08-19T15:01:24.152Z,45.00
2018-08-19T15:04:00.170Z,36.50
2018-08-19T15:06:33.142Z,41.33
2018-08-19T15:09:06.635Z,42.10
2018-08-19T15:11:39.513Z,42.77
2018-08-19T15:14:18.454Z,44.10
2018-08-19T15:16:53.110Z,36.30
2018-08-19T15:19:26.496Z,34.67
2018-08-19T15:22:00.953Z,43.73
2018-08-19T15:24:34.291Z,38.93
2018-08-19T15:27:07.833Z,43.73
2018-08-19T15:29:46.766Z,38.13
2018-08-19T15:32:20.449Z,31.50
2018-08-19T15:34:53.899Z,38.80
2018-08-19T15:37:27.031Z,36.90
2018-08-19T15:40:00.067Z,37.13
2018-08-19T15:42:34.926Z,37.63
2018-08-19T15:45:08.002Z,40.07
2018-08-19T15:47:40.961Z,39.80
2018-08-19T15:50:21.431Z,35.20
2018-08-19T15:52:54.583Z,37.43
2018-08-19T15:55:29.542Z,34.50
2018-08-19T15:58:04.866Z,31.73
2018-08-19T16:00:40.994Z,39.48
2018-08-19T16:03:15.380Z,34.97
2018-08-19T16:05:48.246Z,40.37
2018-08-19T16:08:21.239Z,32.08
2018-08-19T16:10:54.135Z,31.30
2018-08-19T16:13:27.253Z,37.00
2018-08-19T16:16:00.270Z,29.90
2018-08-19T16:18:33.206Z,33.63
2018-08-19T16:21:06.484Z,30.33
2018-08-19T16:23:39.370Z,28.90
2018-08-19T16:26:12.653Z,30.70
2018-08-19T16:28:45.615Z,30.93
2018-08-19T16:31:19.147Z,32.80
2018-08-19T16:33:52.112Z,30.00
2018-08-19T16:36:25.031Z,30.43
2018-08-19T16:38:59.296Z,31.53
2018-08-19T16:41:32.726Z,32.10
2018-08-19T16:44:05.944Z,30.50
2018-08-19T16:46:39.001Z,28.13
2018-08-19T16:49:11.888Z,29.00
2018-08-19T16:51:44.849Z,30.27
2018-08-19T16:54:17.807Z,27.90
2018-08-19T16:56:52.347Z,27.60
2018-08-19T16:59:25.237Z,26.77
2018-08-19T17:01:58.168Z,26.90
2018-08-19T17:04:32.258Z,27.22
2018-08-19T17:07:05.152Z,28.33
2018-08-19T17:09:39.539Z,30.03
2018-08-19T17:12:12.424Z,27.40
2018-08-19T17:14:45.295Z,28.97
2018-08-19T17:17:19.892Z,27.70
2018-08-19T17:19:52.825Z,29.10
2018-08-19T17:22:26.245Z,27.17
2018-08-19T17:24:59.249Z,24.60
2018-08-19T17:27:32.711Z,28.73
2018-08-19T17:30:08.684Z,27.50
2018-08-19T17:32:41.637Z,27.80
2018-08-19T17:35:15.740Z,28.80
2018-08-19T17:37:48.592Z,27.33
2018-08-19T17:40:21.950Z,27.82
2018-08-19T17:42:54.817Z,30.43
2018-08-19T17:45:27.786Z,26.97
2018-08-19T17:48:00.807Z,25.63
2018-08-19T17:50:33.960Z,27.27
2018-08-19T17:53:07.249Z,25.83
2018-08-19T17:55:40.227Z,26.73
2018-08-19T17:58:13.180Z,26.70
2018-08-19T18:00:46.091Z,25.07
2018-08-19T18:03:19.014Z,28.07
2018-08-19T18:05:52.060Z,27.57
2018-08-19T18:08:25.872Z,28.13
2018-08-19T18:11:00.529Z,27.17
2018-08-19T18:13:34.815Z,27.53
2018-08-19T18:16:07.683Z,27.90
2018-08-19T18:18:40.568Z,29.90
2018-08-19T18:21:14.527Z,27.77
2018-08-19T18:23:51.133Z,28.07
2018-08-19T18:26:23.968Z,26.50
2018-08-19T18:28:56.891Z,28.07
2018-08-19T18:31:30.699Z,25.90
2018-08-19T18:34:04.317Z,26.17
2018-08-19T18:36:38.012Z,26.17
2018-08-19T18:39:12.408Z,25.83
2018-08-19T18:41:48.391Z,34.93
2018-08-19T18:44:22.646Z,25.77
2018-08-19T18:46:55.572Z,26.00
2018-08-19T18:49:30.105Z,25.60
2018-08-19T18:52:08.000Z,26.80
2018-08-19T18:54:41.693Z,26.80
2018-08-19T18:57:15.299Z,31.30
2018-08-19T18:59:48.159Z,27.20
2018-08-19T19:02:22.461Z,26.23
2018-08-19T19:04:55.419Z,27.13
2018-08-19T19:07:28.489Z,27.00
2018-08-19T19:10:01.582Z,25.70
2018-08-19T19:12:34.659Z,27.67
2018-08-19T19:15:07.634Z,28.10
2018-08-19T19:17:43.572Z,28.33
2018-08-19T19:20:17.153Z,26.50
2018-08-19T19:22:54.679Z,25.40
2018-08-19T19:25:32.136Z,26.40
2018-08-19T19:28:05.410Z,25.40
2018-08-19T19:30:38.839Z,27.20
2018-08-19T19:33:16.165Z,25.35
2018-08-19T19:35:49.585Z,26.30
2018-08-19T19:38:22.854Z,27.70
2018-08-19T19:40:59.635Z,28.43
2018-08-19T19:43:32.831Z,25.03
2018-08-19T19:46:06.629Z,25.97
2018-08-19T19:48:39.865Z,28.63
2018-08-19T19:51:13.059Z,28.20
2018-08-19T19:53:46.142Z,26.07
2018-08-19T19:56:20.942Z,27.13
2018-08-19T19:58:54.846Z,29.53
2018-08-19T20:01:27.743Z,26.87
2018-08-19T20:04:01.941Z,27.60
2018-08-19T20:06:34.828Z,27.33
2018-08-19T20:09:07.941Z,26.70
2018-08-19T20:11:41.813Z,27.43
2018-08-19T20:14:15.695Z,26.67
2018-08-19T20:16:49.035Z,30.93
2018-08-19T20:19:21.847Z,28.97
2018-08-19T20:21:55.527Z,25.70
2018-08-19T20:24:28.533Z,32.73
2018-08-19T20:27:01.449Z,24.83
2018-08-19T20:29:34.889Z,26.60
2018-08-19T20:32:07.702Z,27.50
2018-08-19T20:34:41.874Z,26.50
2018-08-19T20:37:14.632Z,27.10
2018-08-19T20:39:47.544Z,28.33
2018-08-19T20:42:21.889Z,27.35
2018-08-19T20:44:55.234Z,27.27
2018-08-19T20:47:29.316Z,28.77
2018-08-19T20:50:02.138Z,25.60
2018-08-19T20:52:47.403Z,26.30
2018-08-19T20:55:20.328Z,28.30
2018-08-19T20:57:53.194Z,27.63
2018-08-19T21:00:26.413Z,25.07
2018-08-19T21:02:59.235Z,26.00
2018-08-19T21:05:33.210Z,27.70
2018-08-19T21:08:10.979Z,25.83
2018-08-19T21:10:44.948Z,26.43
2018-08-19T21:13:21.413Z,26.80
2018-08-19T21:15:55.527Z,25.57
2018-08-19T21:18:28.490Z,27.60
2018-08-19T21:21:01.413Z,25.77
2018-08-19T21:23:35.173Z,28.07
2018-08-19T21:26:08.754Z,28.60
2018-08-19T21:28:41.722Z,29.43
2018-08-19T21:31:15.596Z,25.10
2018-08-19T21:33:48.583Z,30.10
2018-08-19T21:36:21.530Z,28.38
2018-08-19T21:38:55.077Z,26.37
2018-08-19T21:41:35.769Z,27.60
2018-08-19T21:44:09.309Z,30.70
2018-08-19T21:46:42.301Z,27.77
2018-08-19T21:49:15.599Z,31.40
2018-08-19T21:51:48.490Z,28.03
2018-08-19T21:54:21.523Z,29.05
2018-08-19T21:56:54.906Z,27.00
2018-08-19T21:59:27.820Z,28.20
2018-08-19T22:02:01.634Z,27.23
2018-08-19T22:04:34.548Z,27.60
2018-08-19T22:07:07.455Z,28.70
2018-08-19T22:09:40.784Z,26.73
2018-08-19T22:12:14.488Z,27.50
2018-08-19T22:14:47.415Z,29.63
2018-08-19T22:17:21.009Z,27.70
2018-08-19T22:19:53.944Z,25.80
2018-08-19T22:22:27.010Z,27.30
2018-08-19T22:25:00.149Z,27.50
2018-08-19T22:27:33.849Z,29.77
2018-08-19T22:30:06.785Z,31.67
2018-08-19T22:32:39.701Z,32.20
2018-08-19T22:35:12.637Z,32.30
2018-08-19T22:37:46.159Z,25.30
2018-08-19T22:40:24.392Z,28.80
2018-08-19T22:42:57.395Z,28.13
2018-08-19T22:45:30.256Z,28.17
2018-08-19T22:48:03.915Z,28.80
2018-08-19T22:50:36.789Z,30.50
2018-08-19T22:53:10.396Z,26.33
2018-08-19T22:55:43.216Z,30.10
2018-08-19T22:58:16.118Z,27.30
2018-08-19T23:00:49.017Z,28.10
2018-08-19T23:03:21.860Z,27.33
2018-08-19T23:05:54.814Z,31.13
2018-08-19T23:08:30.892Z,29.20
2018-08-19T23:11:05.962Z,29.87
2018-08-19T23:13:47.720Z,32.27
2018-08-19T23:16:20.926Z,30.60
2018-08-19T23:18:53.830Z,33.83
2018-08-19T23:21:26.790Z,32.70
2018-08-19T23:24:00.426Z,30.50
2018-08-19T23:26:33.460Z,32.43
2018-08-19T23:29:06.596Z,35.00
2018-08-19T23:31:39.932Z,28.93
2018-08-19T23:34:13.220Z,33.40
2018-08-19T23:36:46.308Z,34.00
2018-08-19T23:39:19.524Z,33.30
2018-08-19T23:41:52.705Z,31.13
2018-08-19T23:44:25.762Z,29.57
2018-08-19T23:46:58.959Z,30.33
2018-08-19T23:49:34.209Z,33.85
2018-08-19T23:52:07.798Z,29.30
2018-08-19T23:54:41.305Z,31.67
2018-08-19T23:57:15.348Z,29.87
2018-08-19T23:59:50.988Z,34.23
